createdAt,value
2022-08-29T00:00:18.569Z,16.00
2022-08-29T00:02:49.314Z,16.00
2022-08-29T00:05:19.273Z,15.90
2022-08-29T00:07:50.824Z,15.90
2022-08-29T00:10:21.506Z,15.80
2022-08-29T00:12:49.914Z,15.80
2022-08-29T00:15:18.618Z,15.80
2022-08-29T00:17:46.859Z,15.70
2022-08-29T00:20:20.936Z,15.70
2022-08-29T00:22:51.189Z,15.70
2022-08-29T00:25:27.500Z,15.60
2022-08-29T00:27:55.912Z,15.60
2022-08-29T00:30:25.243Z,15.60
2022-08-29T00:32:54.554Z,15.60
2022-08-29T00:35:26.887Z,15.60
2022-08-29T00:37:55.882Z,15.50
2022-08-29T00:40:30.429Z,15.50
2022-08-29T00:42:59.346Z,15.50
2022-08-29T00:45:29.355Z,15.40
2022-08-29T00:48:02.597Z,15.40
2022-08-29T00:50:36.814Z,15.40
2022-08-29T00:53:07.901Z,15.40
2022-08-29T00:55:40.712Z,15.40
2022-08-29T00:58:14.713Z,15.40
2022-08-29T01:00:44.011Z,15.40
2022-08-29T01:03:13.386Z,15.30
2022-08-29T01:05:42.812Z,15.30
2022-08-29T01:08:11.253Z,15.30
2022-08-29T01:10:58.887Z,15.30
2022-08-29T01:13:33.474Z,15.20
2022-08-29T01:16:03.780Z,15.20
2022-08-29T01:18:35.970Z,15.10
2022-08-29T01:21:13.429Z,15.10
2022-08-29T01:23:49.553Z,15.10
2022-08-29T01:26:19.346Z,15.10
2022-08-29T01:28:51.578Z,15.10
2022-08-29T01:31:42.085Z,15.10
2022-08-29T01:34:20.946Z,15.10
2022-08-29T01:37:00.988Z,15.10
2022-08-29T01:39:34.040Z,15.00
2022-08-29T01:42:09.968Z,15.00
2022-08-29T01:44:39.181Z,15.00
2022-08-29T01:47:11.292Z,15.00
2022-08-29T01:49:40.779Z,14.90
2022-08-29T01:52:09.599Z,14.90
2022-08-29T01:54:38.616Z,14.90
2022-08-29T01:57:13.015Z,14.90
2022-08-29T01:59:42.025Z,14.90
2022-08-29T02:02:17.459Z,14.90
2022-08-29T02:04:47.229Z,14.80
2022-08-29T02:07:19.463Z,14.80
2022-08-29T02:09:49.071Z,14.70
2022-08-29T02:12:20.564Z,14.80
2022-08-29T02:14:50.621Z,14.70
2022-08-29T02:17:19.312Z,14.70
2022-08-29T02:19:47.544Z,14.70
2022-08-29T02:22:16.382Z,14.60
2022-08-29T02:24:44.687Z,14.60
2022-08-29T02:27:15.518Z,14.60
2022-08-29T02:29:45.099Z,14.60
2022-08-29T02:32:15.831Z,14.50
2022-08-29T02:34:47.693Z,14.50
2022-08-29T02:37:17.879Z,14.50
2022-08-29T02:39:46.074Z,14.50
2022-08-29T02:42:14.344Z,14.40
2022-08-29T02:44:43.944Z,14.40
2022-08-29T02:47:13.284Z,14.40
2022-08-29T02:49:41.512Z,14.40
2022-08-29T02:52:10.257Z,14.40
2022-08-29T02:54:38.948Z,14.40
2022-08-29T02:57:17.017Z,14.40
2022-08-29T02:59:49.000Z,14.40
2022-08-29T03:02:17.219Z,14.30
2022-08-29T03:04:45.448Z,14.30
2022-08-29T03:07:14.071Z,14.30
2022-08-29T03:09:42.292Z,14.30
2022-08-29T03:12:10.864Z,14.30
2022-08-29T03:14:39.340Z,14.20
2022-08-29T03:17:08.878Z,14.20
2022-08-29T03:19:38.283Z,14.20
2022-08-29T03:22:06.930Z,14.10
2022-08-29T03:24:35.967Z,14.10
2022-08-29T03:27:04.849Z,14.10
2022-08-29T03:29:34.118Z,14.10
2022-08-29T03:32:02.353Z,14.00
2022-08-29T03:34:32.980Z,14.00
2022-08-29T03:37:01.351Z,14.00
2022-08-29T03:39:30.455Z,14.00
2022-08-29T03:41:58.894Z,14.00
2022-08-29T03:44:27.183Z,14.00
2022-08-29T03:46:56.852Z,14.00
2022-08-29T03:49:25.037Z,13.90
2022-08-29T03:51:54.843Z,13.90
2022-08-29T03:54:23.156Z,13.90
2022-08-29T03:56:51.488Z,13.90
2022-08-29T03:59:21.810Z,13.90
2022-08-29T04:01:50.831Z,13.80
2022-08-29T04:04:34.860Z,13.80
2022-08-29T04:07:06.772Z,13.80
2022-08-29T04:09:35.109Z,13.80
2022-08-29T04:12:03.812Z,13.70
2022-08-29T04:14:32.430Z,13.70
2022-08-29T04:17:01.147Z,13.60
2022-08-29T04:19:29.315Z,13.60
2022-08-29T04:21:57.829Z,13.60
2022-08-29T04:24:27.462Z,13.60
2022-08-29T04:26:59.499Z,13.60
2022-08-29T04:29:28.333Z,13.60
2022-08-29T04:31:56.695Z,13.60
2022-08-29T04:34:25.294Z,13.60
2022-08-29T04:36:53.669Z,13.60
2022-08-29T04:39:27.922Z,13.60
2022-08-29T04:41:56.145Z,13.50
2022-08-29T04:44:24.379Z,13.50
2022-08-29T04:46:52.605Z,13.50
2022-08-29T04:49:21.637Z,13.50
2022-08-29T04:51:49.835Z,13.50
2022-08-29T04:54:18.031Z,13.60
2022-08-29T04:56:47.692Z,13.70
2022-08-29T04:59:17.151Z,13.80
2022-08-29T05:01:49.794Z,13.80
2022-08-29T05:04:20.062Z,13.80
2022-08-29T05:06:51.961Z,13.80
2022-08-29T05:09:26.910Z,13.90
2022-08-29T05:11:56.507Z,13.90
2022-08-29T05:14:24.668Z,13.90
2022-08-29T05:16:52.864Z,13.90
2022-08-29T05:19:21.218Z,14.00
2022-08-29T05:21:49.970Z,14.00
2022-08-29T05:24:18.944Z,14.00
2022-08-29T05:26:47.765Z,14.10
2022-08-29T05:29:17.285Z,14.20
2022-08-29T05:31:45.874Z,14.30
2022-08-29T05:34:34.456Z,14.40
2022-08-29T05:37:03.435Z,14.40
2022-08-29T05:39:31.802Z,14.50
2022-08-29T05:42:00.760Z,14.70
2022-08-29T05:44:35.096Z,14.70
2022-08-29T05:47:12.235Z,14.80
2022-08-29T05:49:43.524Z,14.90
2022-08-29T05:52:13.495Z,15.00
2022-08-29T05:54:44.028Z,15.10
2022-08-29T05:57:18.938Z,15.20
2022-08-29T05:59:51.163Z,15.30
2022-08-29T06:02:21.076Z,15.40
2022-08-29T06:04:50.737Z,15.60
2022-08-29T06:07:19.654Z,15.80
2022-08-29T06:09:48.033Z,15.90
2022-08-29T06:12:16.766Z,16.00
2022-08-29T06:14:50.742Z,16.10
2022-08-29T06:17:20.645Z,16.20
2022-08-29T06:19:52.010Z,16.40
2022-08-29T06:22:25.278Z,16.50
2022-08-29T06:24:54.946Z,16.70
2022-08-29T06:27:25.820Z,16.90
2022-08-29T06:29:54.245Z,17.00
2022-08-29T06:32:24.994Z,17.10
2022-08-29T06:34:53.477Z,17.20
2022-08-29T06:37:21.771Z,17.40
2022-08-29T06:39:50.337Z,17.50
2022-08-29T06:42:23.076Z,17.70
2022-08-29T06:44:52.004Z,17.80
2022-08-29T06:47:24.572Z,17.90
2022-08-29T06:49:52.766Z,18.00
2022-08-29T06:52:21.156Z,18.20
2022-08-29T06:54:50.338Z,18.30
2022-08-29T06:57:24.456Z,18.60
2022-08-29T06:59:57.483Z,18.80
2022-08-29T07:02:27.358Z,19.10
2022-08-29T07:04:56.360Z,19.40
2022-08-29T07:07:24.556Z,19.70
2022-08-29T07:09:52.853Z,19.90
2022-08-29T07:12:21.263Z,20.40
2022-08-29T07:14:58.214Z,20.90
2022-08-29T07:17:28.088Z,21.60
2022-08-29T07:19:56.428Z,22.30
2022-08-29T07:22:26.127Z,22.90
2022-08-29T07:24:55.952Z,23.60
2022-08-29T07:27:24.237Z,24.20
2022-08-29T07:29:53.625Z,24.90
2022-08-29T07:32:25.726Z,25.40
2022-08-29T07:34:56.357Z,25.80
2022-08-29T07:37:24.930Z,26.30
2022-08-29T07:39:53.366Z,26.80
2022-08-29T07:42:21.589Z,27.30
2022-08-29T07:44:49.794Z,27.70
2022-08-29T07:47:18.129Z,28.20
2022-08-29T07:49:46.315Z,28.50
2022-08-29T07:52:15.842Z,28.90
2022-08-29T07:54:44.117Z,29.30
2022-08-29T07:57:12.776Z,29.80
2022-08-29T07:59:41.021Z,30.10
2022-08-29T08:02:09.348Z,30.10
2022-08-29T08:04:37.780Z,30.40
2022-08-29T08:07:06.805Z,30.80
2022-08-29T08:09:43.385Z,31.10
2022-08-29T08:12:11.608Z,31.50
2022-08-29T08:14:39.795Z,31.90
2022-08-29T08:17:08.040Z,32.00
2022-08-29T08:19:36.314Z,32.50
2022-08-29T08:22:04.500Z,32.90
2022-08-29T08:24:32.725Z,33.20
2022-08-29T08:27:02.373Z,33.40
2022-08-29T08:29:30.597Z,33.30
2022-08-29T08:31:59.841Z,33.50
2022-08-29T08:34:29.395Z,33.40
2022-08-29T08:36:58.310Z,33.60
2022-08-29T08:39:27.118Z,34.00
2022-08-29T08:41:58.782Z,34.30
2022-08-29T08:44:59.529Z,34.40
2022-08-29T08:47:33.599Z,34.50
2022-08-29T08:50:09.860Z,34.80
2022-08-29T08:52:45.240Z,35.60
2022-08-29T08:55:25.329Z,36.40
2022-08-29T08:58:04.134Z,37.10
2022-08-29T09:00:46.732Z,37.60
2022-08-29T09:03:50.636Z,38.00
2022-08-29T09:06:34.955Z,38.40
2022-08-29T09:09:16.479Z,38.70
2022-08-29T09:11:56.939Z,38.90
2022-08-29T09:14:42.822Z,39.30
2022-08-29T09:17:21.241Z,39.60
2022-08-29T09:19:50.899Z,40.00
2022-08-29T09:22:26.562Z,40.20
2022-08-29T09:24:59.878Z,39.00
2022-08-29T09:27:31.871Z,38.50
2022-08-29T09:30:08.909Z,38.60
2022-08-29T09:32:56.271Z,38.40
2022-08-29T09:35:29.216Z,39.20
2022-08-29T09:38:01.531Z,39.80
2022-08-29T09:40:49.699Z,40.40
2022-08-29T09:43:26.194Z,40.50
2022-08-29T09:46:17.564Z,40.40
2022-08-29T09:48:52.804Z,40.60
2022-08-29T09:51:28.739Z,41.10
2022-08-29T09:54:15.661Z,41.40
2022-08-29T09:56:53.370Z,41.60
2022-08-29T09:59:28.922Z,41.80
2022-08-29T10:02:24.971Z,41.90
2022-08-29T10:04:58.116Z,41.90
2022-08-29T10:07:29.244Z,42.10
2022-08-29T10:10:02.102Z,42.20
2022-08-29T10:12:48.986Z,42.20
2022-08-29T10:15:47.018Z,41.60
2022-08-29T10:18:28.766Z,41.70
2022-08-29T10:21:15.884Z,42.00
2022-08-29T10:24:03.831Z,41.80
2022-08-29T10:26:42.690Z,42.20
2022-08-29T10:29:31.764Z,42.10
2022-08-29T10:32:11.465Z,41.60
2022-08-29T10:34:59.276Z,41.90
2022-08-29T10:37:38.464Z,41.40
2022-08-29T10:40:17.708Z,41.70
2022-08-29T10:42:48.667Z,41.60
2022-08-29T10:45:25.528Z,41.40
2022-08-29T10:48:05.197Z,42.00
2022-08-29T10:50:57.746Z,42.10
2022-08-29T10:53:32.474Z,42.60
2022-08-29T10:56:07.068Z,43.10
2022-08-29T10:58:51.507Z,42.90
2022-08-29T11:01:28.451Z,43.00
2022-08-29T11:04:17.600Z,42.10
2022-08-29T11:06:54.336Z,42.60
2022-08-29T11:09:29.709Z,42.60
2022-08-29T11:12:08.985Z,42.70
2022-08-29T11:14:42.197Z,42.80
2022-08-29T11:17:15.833Z,43.40
2022-08-29T11:20:00.403Z,43.80
2022-08-29T11:22:34.941Z,43.40
2022-08-29T11:25:11.524Z,42.70
2022-08-29T11:27:54.124Z,42.30
2022-08-29T11:30:30.403Z,41.40
2022-08-29T11:33:10.210Z,41.10
2022-08-29T11:35:53.777Z,41.30
2022-08-29T11:39:18.805Z,41.40
2022-08-29T11:41:54.172Z,41.40
2022-08-29T11:44:31.960Z,41.50
2022-08-29T11:47:01.216Z,41.70
2022-08-29T11:49:42.961Z,42.20
2022-08-29T11:52:32.262Z,42.20
2022-08-29T11:55:26.971Z,41.70
2022-08-29T11:58:07.926Z,41.50
2022-08-29T12:00:52.115Z,41.20
2022-08-29T12:03:55.449Z,40.90
2022-08-29T12:06:48.928Z,41.00
2022-08-29T12:09:32.430Z,41.30
2022-08-29T12:12:39.475Z,40.40
2022-08-29T12:15:53.971Z,40.30
2022-08-29T12:18:45.013Z,39.90
2022-08-29T12:21:49.649Z,40.20
2022-08-29T12:24:55.192Z,39.50
2022-08-29T12:28:00.960Z,37.80
2022-08-29T12:30:32.450Z,36.30
2022-08-29T12:33:14.556Z,36.10
2022-08-29T12:36:08.433Z,37.00
2022-08-29T12:38:53.273Z,37.90
2022-08-29T12:41:39.058Z,38.00
2022-08-29T12:44:13.761Z,37.80
2022-08-29T12:46:46.031Z,37.70
2022-08-29T12:49:23.033Z,38.10
2022-08-29T12:52:02.313Z,38.80
2022-08-29T12:54:33.932Z,39.20
2022-08-29T12:57:04.870Z,39.50
2022-08-29T12:59:35.334Z,39.60
2022-08-29T13:02:03.644Z,40.10
2022-08-29T13:04:33.850Z,40.40
2022-08-29T13:07:06.592Z,39.80
2022-08-29T13:09:41.379Z,38.60
2022-08-29T13:12:17.243Z,37.40
2022-08-29T13:14:52.547Z,36.10
2022-08-29T13:17:24.207Z,35.20
2022-08-29T13:20:49.780Z,34.40
2022-08-29T13:23:26.262Z,33.90
2022-08-29T13:26:00.190Z,33.70
2022-08-29T13:28:37.913Z,33.60
2022-08-29T13:31:30.530Z,34.30
2022-08-29T13:34:22.254Z,33.90
2022-08-29T13:37:07.655Z,33.50
2022-08-29T13:39:44.783Z,34.60
2022-08-29T13:42:21.450Z,35.20
2022-08-29T13:45:02.448Z,36.00
2022-08-29T13:47:33.653Z,35.40
2022-08-29T13:50:06.987Z,34.70
2022-08-29T13:52:36.966Z,34.90
2022-08-29T13:55:07.740Z,35.40
2022-08-29T13:57:36.679Z,35.20
2022-08-29T14:00:08.838Z,34.40
2022-08-29T14:02:44.738Z,33.70
2022-08-29T14:05:14.374Z,33.50
2022-08-29T14:07:45.405Z,34.10
2022-08-29T14:10:16.663Z,34.50
2022-08-29T14:12:45.943Z,35.00
2022-08-29T14:15:18.173Z,35.50
2022-08-29T14:17:48.824Z,36.10
2022-08-29T14:20:19.696Z,36.60
2022-08-29T14:22:49.615Z,36.80
2022-08-29T14:25:20.428Z,36.90
2022-08-29T14:27:50.093Z,37.20
2022-08-29T14:30:21.703Z,37.10
2022-08-29T14:32:50.089Z,37.10
2022-08-29T14:35:25.859Z,37.20
2022-08-29T14:37:57.254Z,37.00
2022-08-29T14:40:26.690Z,36.90
2022-08-29T14:42:58.096Z,36.90
2022-08-29T14:45:27.389Z,37.00
2022-08-29T14:47:55.996Z,36.80
2022-08-29T14:50:24.820Z,36.90
2022-08-29T14:52:53.350Z,36.80
2022-08-29T14:55:23.334Z,36.60
2022-08-29T14:57:51.599Z,36.60
2022-08-29T15:00:23.004Z,36.60
2022-08-29T15:02:52.439Z,36.60
2022-08-29T15:05:21.270Z,36.40
2022-08-29T15:07:49.778Z,36.30
2022-08-29T15:10:23.957Z,36.10
2022-08-29T15:12:52.744Z,36.00
2022-08-29T15:15:28.825Z,35.90
2022-08-29T15:17:57.360Z,35.90
2022-08-29T15:20:46.734Z,35.70
2022-08-29T15:23:15.087Z,35.50
2022-08-29T15:25:45.100Z,34.90
2022-08-29T15:28:20.801Z,34.50
2022-08-29T15:30:49.163Z,34.20
2022-08-29T15:33:17.434Z,33.50
2022-08-29T15:35:45.675Z,33.10
2022-08-29T15:38:14.040Z,32.80
2022-08-29T15:40:43.843Z,32.80
2022-08-29T15:43:12.286Z,32.90
2022-08-29T15:45:40.876Z,32.80
2022-08-29T15:48:11.695Z,32.30
2022-08-29T15:50:40.173Z,32.10
2022-08-29T15:53:08.354Z,31.80
2022-08-29T15:55:38.294Z,31.50
2022-08-29T15:58:11.082Z,31.20
2022-08-29T16:00:39.467Z,30.60
2022-08-29T16:03:08.673Z,30.30
2022-08-29T16:05:40.207Z,29.80
2022-08-29T16:08:10.279Z,29.50
2022-08-29T16:10:45.727Z,29.40
2022-08-29T16:13:15.474Z,29.20
2022-08-29T16:15:44.013Z,28.90
2022-08-29T16:18:12.634Z,28.70
2022-08-29T16:20:41.661Z,28.60
2022-08-29T16:23:10.459Z,28.40
2022-08-29T16:25:39.526Z,28.30
2022-08-29T16:28:08.041Z,28.30
2022-08-29T16:30:38.430Z,28.30
2022-08-29T16:33:14.614Z,28.30
2022-08-29T16:35:43.120Z,28.30
2022-08-29T16:38:11.665Z,28.30
2022-08-29T16:40:40.073Z,28.30
2022-08-29T16:43:08.421Z,28.30
2022-08-29T16:45:38.109Z,28.30
2022-08-29T16:48:10.821Z,28.30
2022-08-29T16:50:45.347Z,28.30
2022-08-29T16:53:13.609Z,28.20
2022-08-29T16:55:41.824Z,28.10
2022-08-29T16:58:27.529Z,28.00
2022-08-29T17:00:57.269Z,27.90
2022-08-29T17:03:25.650Z,27.80
2022-08-29T17:05:54.115Z,27.70
2022-08-29T17:08:22.570Z,27.70
2022-08-29T17:10:49.766Z,27.60
2022-08-29T17:13:17.082Z,27.50
2022-08-29T17:15:44.199Z,27.30
2022-08-29T17:18:13.817Z,27.20
2022-08-29T17:20:44.019Z,27.00
2022-08-29T17:23:15.712Z,26.80
2022-08-29T17:25:44.509Z,26.70
2022-08-29T17:28:19.967Z,26.60
2022-08-29T17:30:50.288Z,26.50
2022-08-29T17:33:20.713Z,26.30
2022-08-29T17:35:49.645Z,26.20
2022-08-29T17:38:18.538Z,26.10
2022-08-29T17:40:47.418Z,26.00
2022-08-29T17:43:18.342Z,25.90
2022-08-29T17:45:47.101Z,25.80
2022-08-29T17:48:15.553Z,25.70
2022-08-29T17:50:45.227Z,25.60
2022-08-29T17:53:13.533Z,25.50
2022-08-29T17:55:41.966Z,25.40
2022-08-29T17:58:10.287Z,25.30
2022-08-29T18:00:38.921Z,25.20
2022-08-29T18:03:07.225Z,25.10
2022-08-29T18:05:35.532Z,25.00
2022-08-29T18:08:06.281Z,25.00
2022-08-29T18:10:36.787Z,24.90
2022-08-29T18:13:05.351Z,24.80
2022-08-29T18:15:35.303Z,24.60
2022-08-29T18:18:04.287Z,24.60
2022-08-29T18:20:32.652Z,24.50
2022-08-29T18:23:00.878Z,24.40
2022-08-29T18:25:30.605Z,24.30
2022-08-29T18:27:59.072Z,24.30
2022-08-29T18:30:27.590Z,24.20
2022-08-29T18:32:55.943Z,24.10
2022-08-29T18:35:24.344Z,24.10
2022-08-29T18:37:52.615Z,24.00
2022-08-29T18:40:20.962Z,23.90
2022-08-29T18:42:52.538Z,23.80
2022-08-29T18:45:21.366Z,23.70
2022-08-29T18:47:49.649Z,23.70
2022-08-29T18:50:36.537Z,23.60
2022-08-29T18:53:08.707Z,23.50
2022-08-29T18:55:36.974Z,23.40
2022-08-29T18:58:07.107Z,23.30
2022-08-29T19:00:39.072Z,23.20
2022-08-29T19:03:07.816Z,23.10
2022-08-29T19:05:37.536Z,23.00
2022-08-29T19:08:06.339Z,22.90
2022-08-29T19:10:35.243Z,22.80
2022-08-29T19:13:03.929Z,22.70
2022-08-29T19:15:33.568Z,22.60
2022-08-29T19:18:11.924Z,22.50
2022-08-29T19:20:57.459Z,22.30
2022-08-29T19:23:25.756Z,22.30
2022-08-29T19:25:55.135Z,22.20
2022-08-29T19:28:23.892Z,22.20
2022-08-29T19:30:53.926Z,22.20
2022-08-29T19:33:22.286Z,22.20
2022-08-29T19:35:53.545Z,22.10
2022-08-29T19:38:23.658Z,22.10
2022-08-29T19:40:56.479Z,22.10
2022-08-29T19:43:27.696Z,22.00
2022-08-29T19:48:48.515Z,22.00
2022-08-29T19:51:22.210Z,22.00
2022-08-29T19:53:56.509Z,21.90
2022-08-29T19:56:26.473Z,21.90
2022-08-29T19:58:55.067Z,21.80
2022-08-29T20:01:25.547Z,21.70
2022-08-29T20:03:54.557Z,21.70
2022-08-29T20:06:23.396Z,21.60
2022-08-29T20:08:51.885Z,21.50
2022-08-29T20:11:24.365Z,21.50
2022-08-29T20:13:56.773Z,21.40
2022-08-29T20:16:30.344Z,21.40
2022-08-29T20:19:00.456Z,21.30
2022-08-29T20:21:28.839Z,21.30
2022-08-29T20:23:58.285Z,21.20
2022-08-29T20:26:30.228Z,21.20
2022-08-29T20:29:00.489Z,21.10
2022-08-29T20:31:30.440Z,21.10
2022-08-29T20:33:59.084Z,21.00
2022-08-29T20:36:45.139Z,20.90
2022-08-29T20:39:17.085Z,20.90
2022-08-29T20:41:49.930Z,20.80
2022-08-29T20:44:20.336Z,20.70
2022-08-29T20:46:52.053Z,20.60
2022-08-29T20:49:22.755Z,20.60
2022-08-29T20:51:52.652Z,20.50
2022-08-29T20:54:23.757Z,20.50
2022-08-29T20:56:52.862Z,20.50
2022-08-29T20:59:23.568Z,20.50
2022-08-29T21:01:56.279Z,20.50
2022-08-29T21:04:42.348Z,20.50
2022-08-29T21:07:14.036Z,20.50
2022-08-29T21:09:44.913Z,20.50
2022-08-29T21:12:15.713Z,20.50
2022-08-29T21:14:44.471Z,20.50
2022-08-29T21:17:14.964Z,20.50
2022-08-29T21:19:44.130Z,20.50
2022-08-29T21:22:15.047Z,20.50
2022-08-29T21:24:43.733Z,20.50
2022-08-29T21:27:12.007Z,20.60
2022-08-29T21:29:42.434Z,20.60
2022-08-29T21:32:10.634Z,20.60
2022-08-29T21:34:42.864Z,20.60
2022-08-29T21:37:11.047Z,20.50
2022-08-29T21:39:39.248Z,20.50
2022-08-29T21:42:07.960Z,20.30
2022-08-29T21:44:36.258Z,20.20
2022-08-29T21:47:05.015Z,20.20
2022-08-29T21:49:33.519Z,20.20
2022-08-29T21:52:03.291Z,20.20
2022-08-29T21:54:31.731Z,20.20
2022-08-29T21:56:59.913Z,20.20
2022-08-29T21:59:28.618Z,20.20
2022-08-29T22:01:57.008Z,20.20
2022-08-29T22:04:29.018Z,20.20
2022-08-29T22:06:59.237Z,20.10
2022-08-29T22:09:30.443Z,20.10
2022-08-29T22:11:59.142Z,20.10
2022-08-29T22:14:42.226Z,20.10
2022-08-29T22:17:10.475Z,20.10
2022-08-29T22:19:38.785Z,20.00
2022-08-29T22:22:07.409Z,20.00
2022-08-29T22:24:37.386Z,20.00
2022-08-29T22:27:06.032Z,19.90
2022-08-29T22:29:34.558Z,19.90
2022-08-29T22:32:02.768Z,19.80
2022-08-29T22:34:30.957Z,19.80
2022-08-29T22:36:59.244Z,19.70
2022-08-29T22:39:27.563Z,19.70
2022-08-29T22:41:57.308Z,19.60
2022-08-29T22:47:14.810Z,19.50
2022-08-29T22:49:43.082Z,19.40
2022-08-29T22:52:11.775Z,19.40
2022-08-29T22:54:40.521Z,19.40
2022-08-29T22:57:13.572Z,19.40
2022-08-29T22:59:43.493Z,19.40
2022-08-29T23:02:13.738Z,19.40
2022-08-29T23:04:42.608Z,19.40
2022-08-29T23:07:12.213Z,19.30
2022-08-29T23:09:42.078Z,19.30
2022-08-29T23:12:14.204Z,19.30
2022-08-29T23:14:46.333Z,19.20
2022-08-29T23:17:16.679Z,19.10
2022-08-29T23:19:45.558Z,19.00
2022-08-29T23:22:14.971Z,18.90
2022-08-29T23:24:53.848Z,18.90
2022-08-29T23:27:29.846Z,18.80
2022-08-29T23:29:59.102Z,18.80
2022-08-29T23:32:28.186Z,18.70
2022-08-29T23:34:56.803Z,18.70
2022-08-29T23:37:25.552Z,18.60
2022-08-29T23:39:53.743Z,18.50
2022-08-29T23:42:21.958Z,18.50
2022-08-29T23:44:51.722Z,18.40
2022-08-29T23:47:20.690Z,18.40
2022-08-29T23:49:48.947Z,18.30
2022-08-29T23:52:17.248Z,18.30
2022-08-29T23:54:45.447Z,18.20
2022-08-29T23:57:13.731Z,18.20
2022-08-29T23:59:59.711Z,18.10
